sensor_id;sensor_type;location;lat;lon;timestamp;temperature;humidity
75838;SHT30;64480;52.040;113.502;2023-04-15T00:00:30;11.50;23.89
75838;SHT30;64480;52.040;113.502;2023-04-15T00:03:33;11.22;24.88
75838;SHT30;64480;52.040;113.502;2023-04-15T00:06:38;10.95;24.28
75838;SHT30;64480;52.040;113.502;2023-04-15T00:09:44;10.85;25.07
75838;SHT30;64480;52.040;113.502;2023-04-15T00:12:48;11.43;23.99
75838;SHT30;64480;52.040;113.502;2023-04-15T00:15:51;11.56;24.70
75838;SHT30;64480;52.040;113.502;2023-04-15T00:18:55;11.70;23.72
75838;SHT30;64480;52.040;113.502;2023-04-15T00:21:59;11.67;24.04
75838;SHT30;64480;52.040;113.502;2023-04-15T00:25:03;11.99;23.07
75838;SHT30;64480;52.040;113.502;2023-04-15T00:28:06;11.64;23.43
75838;SHT30;64480;52.040;113.502;2023-04-15T00:31:10;11.19;24.57
75838;SHT30;64480;52.040;113.502;2023-04-15T00:34:14;11.36;23.72
75838;SHT30;64480;52.040;113.502;2023-04-15T00:37:17;11.50;23.46
75838;SHT30;64480;52.040;113.502;2023-04-15T00:40:21;10.93;23.78
75838;SHT30;64480;52.040;113.502;2023-04-15T00:43:26;11.69;23.79
75838;SHT30;64480;52.040;113.502;2023-04-15T00:46:30;11.55;22.40
75838;SHT30;64480;52.040;113.502;2023-04-15T00:49:33;11.78;22.89
75838;SHT30;64480;52.040;113.502;2023-04-15T00:52:38;11.30;23.19
75838;SHT30;64480;52.040;113.502;2023-04-15T00:55:42;11.23;23.55
75838;SHT30;64480;52.040;113.502;2023-04-15T00:58:45;11.87;22.88
75838;SHT30;64480;52.040;113.502;2023-04-15T01:01:51;11.87;24.39
75838;SHT30;64480;52.040;113.502;2023-04-15T01:04:55;11.69;23.15
75838;SHT30;64480;52.040;113.502;2023-04-15T01:07:59;11.08;23.69
75838;SHT30;64480;52.040;113.502;2023-04-15T01:11:02;10.63;25.39
75838;SHT30;64480;52.040;113.502;2023-04-15T01:14:08;9.91;26.03
75838;SHT30;64480;52.040;113.502;2023-04-15T01:17:12;8.59;27.91
75838;SHT30;64480;52.040;113.502;2023-04-15T01:20:16;7.43;28.32
75838;SHT30;64480;52.040;113.502;2023-04-15T01:23:23;6.66;30.86
75838;SHT30;64480;52.040;113.502;2023-04-15T01:26:27;6.07;32.81
75838;SHT30;64480;52.040;113.502;2023-04-15T01:29:34;5.43;33.29
75838;SHT30;64480;52.040;113.502;2023-04-15T01:32:39;5.12;34.04
75838;SHT30;64480;52.040;113.502;2023-04-15T01:35:43;4.92;34.17
75838;SHT30;64480;52.040;113.502;2023-04-15T01:38:47;4.95;36.18
75838;SHT30;64480;52.040;113.502;2023-04-15T01:41:51;5.02;35.02
75838;SHT30;64480;52.040;113.502;2023-04-15T01:45:15;5.18;34.96
75838;SHT30;64480;52.040;113.502;2023-04-15T01:48:18;5.25;34.72
75838;SHT30;64480;52.040;113.502;2023-04-15T01:51:30;5.31;34.54
75838;SHT30;64480;52.040;113.502;2023-04-15T01:54:37;4.92;34.63
75838;SHT30;64480;52.040;113.502;2023-04-15T01:57:41;4.62;34.84
75838;SHT30;64480;52.040;113.502;2023-04-15T02:00:51;4.63;37.12
75838;SHT30;64480;52.040;113.502;2023-04-15T02:03:55;4.84;36.47
75838;SHT30;64480;52.040;113.502;2023-04-15T02:06:59;4.79;34.09
75838;SHT30;64480;52.040;113.502;2023-04-15T02:10:05;4.69;34.82
75838;SHT30;64480;52.040;113.502;2023-04-15T02:13:09;4.90;35.28
75838;SHT30;64480;52.040;113.502;2023-04-15T02:16:18;5.12;34.78
75838;SHT30;64480;52.040;113.502;2023-04-15T02:19:21;5.14;35.23
75838;SHT30;64480;52.040;113.502;2023-04-15T02:22:25;4.97;33.85
75838;SHT30;64480;52.040;113.502;2023-04-15T02:25:28;4.87;37.85
75838;SHT30;64480;52.040;113.502;2023-04-15T02:28:32;4.53;37.39
75838;SHT30;64480;52.040;113.502;2023-04-15T02:31:35;4.60;38.67
75838;SHT30;64480;52.040;113.502;2023-04-15T02:34:42;4.48;37.37
75838;SHT30;64480;52.040;113.502;2023-04-15T02:37:45;4.59;37.88
75838;SHT30;64480;52.040;113.502;2023-04-15T02:40:50;4.52;38.31
75838;SHT30;64480;52.040;113.502;2023-04-15T02:43:54;4.62;38.37
75838;SHT30;64480;52.040;113.502;2023-04-15T02:47:13;4.77;37.10
75838;SHT30;64480;52.040;113.502;2023-04-15T02:50:18;4.91;37.23
75838;SHT30;64480;52.040;113.502;2023-04-15T02:53:31;4.90;37.39
75838;SHT30;64480;52.040;113.502;2023-04-15T02:56:39;5.01;36.27
75838;SHT30;64480;52.040;113.502;2023-04-15T02:59:57;5.21;36.21
75838;SHT30;64480;52.040;113.502;2023-04-15T03:03:17;5.31;35.39
75838;SHT30;64480;52.040;113.502;2023-04-15T03:06:25;5.46;34.23
75838;SHT30;64480;52.040;113.502;2023-04-15T03:09:29;5.69;35.21
75838;SHT30;64480;52.040;113.502;2023-04-15T03:12:49;5.86;34.90
75838;SHT30;64480;52.040;113.502;2023-04-15T03:15:56;5.95;33.99
75838;SHT30;64480;52.040;113.502;2023-04-15T03:19:00;6.19;34.49
75838;SHT30;64480;52.040;113.502;2023-04-15T03:22:08;6.52;32.61
75838;SHT30;64480;52.040;113.502;2023-04-15T03:25:17;6.69;32.37
75838;SHT30;64480;52.040;113.502;2023-04-15T03:28:46;6.91;33.41
75838;SHT30;64480;52.040;113.502;2023-04-15T03:31:54;7.12;33.91
75838;SHT30;64480;52.040;113.502;2023-04-15T03:35:15;7.39;31.62
75838;SHT30;64480;52.040;113.502;2023-04-15T03:38:21;7.53;29.58
75838;SHT30;64480;52.040;113.502;2023-04-15T03:41:25;7.57;28.12
75838;SHT30;64480;52.040;113.502;2023-04-15T03:44:30;7.62;27.99
75838;SHT30;64480;52.040;113.502;2023-04-15T03:47:42;7.64;26.40
75838;SHT30;64480;52.040;113.502;2023-04-15T03:50:53;7.73;29.13
75838;SHT30;64480;52.040;113.502;2023-04-15T03:53:58;7.90;29.46
75838;SHT30;64480;52.040;113.502;2023-04-15T03:57:11;7.83;25.31
75838;SHT30;64480;52.040;113.502;2023-04-15T04:00:17;7.90;27.14
75838;SHT30;64480;52.040;113.502;2023-04-15T04:03:23;7.90;27.95
75838;SHT30;64480;52.040;113.502;2023-04-15T04:06:26;7.90;26.57
75838;SHT30;64480;52.040;113.502;2023-04-15T04:09:30;7.84;26.67
75838;SHT30;64480;52.040;113.502;2023-04-15T04:12:33;8.02;27.47
75838;SHT30;64480;52.040;113.502;2023-04-15T04:15:37;8.22;28.92
75838;SHT30;64480;52.040;113.502;2023-04-15T04:18:40;8.33;27.30
75838;SHT30;64480;52.040;113.502;2023-04-15T04:21:44;8.39;27.41
75838;SHT30;64480;52.040;113.502;2023-04-15T04:25:14;8.50;26.96
75838;SHT30;64480;52.040;113.502;2023-04-15T04:28:21;8.43;30.01
75838;SHT30;64480;52.040;113.502;2023-04-15T04:31:25;8.63;28.94
75838;SHT30;64480;52.040;113.502;2023-04-15T04:34:31;8.70;28.72
75838;SHT30;64480;52.040;113.502;2023-04-15T04:37:35;8.68;28.22
75838;SHT30;64480;52.040;113.502;2023-04-15T04:40:39;8.64;27.56
75838;SHT30;64480;52.040;113.502;2023-04-15T04:43:43;8.50;27.22
75838;SHT30;64480;52.040;113.502;2023-04-15T04:46:58;8.57;27.74
75838;SHT30;64480;52.040;113.502;2023-04-15T04:50:25;8.66;28.25
75838;SHT30;64480;52.040;113.502;2023-04-15T04:53:29;8.64;26.75
75838;SHT30;64480;52.040;113.502;2023-04-15T04:56:33;8.81;27.65
75838;SHT30;64480;52.040;113.502;2023-04-15T04:59:36;9.04;27.37
75838;SHT30;64480;52.040;113.502;2023-04-15T05:02:40;9.18;25.89
75838;SHT30;64480;52.040;113.502;2023-04-15T05:05:46;9.07;26.47
75838;SHT30;64480;52.040;113.502;2023-04-15T05:08:51;9.01;24.72
75838;SHT30;64480;52.040;113.502;2023-04-15T05:11:55;8.87;24.49
75838;SHT30;64480;52.040;113.502;2023-04-15T05:14:58;8.95;26.72
75838;SHT30;64480;52.040;113.502;2023-04-15T05:18:02;9.08;25.67
75838;SHT30;64480;52.040;113.502;2023-04-15T05:21:05;9.05;24.10
75838;SHT30;64480;52.040;113.502;2023-04-15T05:24:12;9.02;23.29
75838;SHT30;64480;52.040;113.502;2023-04-15T05:27:15;8.94;24.18
75838;SHT30;64480;52.040;113.502;2023-04-15T05:30:19;9.04;23.97
75838;SHT30;64480;52.040;113.502;2023-04-15T05:33:23;9.22;24.42
75838;SHT30;64480;52.040;113.502;2023-04-15T05:36:28;9.40;24.24
75838;SHT30;64480;52.040;113.502;2023-04-15T05:39:32;9.32;22.83
75838;SHT30;64480;52.040;113.502;2023-04-15T05:42:37;9.44;23.99
75838;SHT30;64480;52.040;113.502;2023-04-15T05:45:40;9.58;23.83
75838;SHT30;64480;52.040;113.502;2023-04-15T05:48:44;9.69;22.43
75838;SHT30;64480;52.040;113.502;2023-04-15T05:51:48;9.64;24.14
75838;SHT30;64480;52.040;113.502;2023-04-15T05:54:51;9.71;23.36
75838;SHT30;64480;52.040;113.502;2023-04-15T05:57:55;9.80;22.54
75838;SHT30;64480;52.040;113.502;2023-04-15T06:00:59;9.83;23.38
75838;SHT30;64480;52.040;113.502;2023-04-15T06:04:03;9.84;22.00
75838;SHT30;64480;52.040;113.502;2023-04-15T06:07:20;9.88;22.07
75838;SHT30;64480;52.040;113.502;2023-04-15T06:10:23;9.88;20.46
75838;SHT30;64480;52.040;113.502;2023-04-15T06:13:30;10.02;19.47
75838;SHT30;64480;52.040;113.502;2023-04-15T06:16:34;10.22;18.46
75838;SHT30;64480;52.040;113.502;2023-04-15T06:19:39;10.21;16.83
75838;SHT30;64480;52.040;113.502;2023-04-15T06:22:43;10.04;16.05
75838;SHT30;64480;52.040;113.502;2023-04-15T06:25:46;9.99;16.27
75838;SHT30;64480;52.040;113.502;2023-04-15T06:28:50;10.08;17.70
75838;SHT30;64480;52.040;113.502;2023-04-15T06:31:53;10.21;17.68
75838;SHT30;64480;52.040;113.502;2023-04-15T06:34:58;10.38;17.16
75838;SHT30;64480;52.040;113.502;2023-04-15T06:38:01;10.55;17.02
75838;SHT30;64480;52.040;113.502;2023-04-15T06:41:07;10.53;17.32
75838;SHT30;64480;52.040;113.502;2023-04-15T06:44:11;10.61;18.11
75838;SHT30;64480;52.040;113.502;2023-04-15T06:47:14;10.47;16.53
75838;SHT30;64480;52.040;113.502;2023-04-15T06:50:21;10.38;17.82
75838;SHT30;64480;52.040;113.502;2023-04-15T06:53:25;10.36;18.38
75838;SHT30;64480;52.040;113.502;2023-04-15T06:56:32;10.23;17.40
75838;SHT30;64480;52.040;113.502;2023-04-15T06:59:35;10.26;17.89
75838;SHT30;64480;52.040;113.502;2023-04-15T07:02:39;10.28;18.07
75838;SHT30;64480;52.040;113.502;2023-04-15T07:05:42;10.32;17.59
75838;SHT30;64480;52.040;113.502;2023-04-15T07:08:46;10.25;16.60
75838;SHT30;64480;52.040;113.502;2023-04-15T07:11:50;10.33;16.75
75838;SHT30;64480;52.040;113.502;2023-04-15T07:14:59;10.30;16.59
75838;SHT30;64480;52.040;113.502;2023-04-15T07:18:02;10.40;18.36
75838;SHT30;64480;52.040;113.502;2023-04-15T07:21:06;10.56;18.66
75838;SHT30;64480;52.040;113.502;2023-04-15T07:24:11;10.60;17.82
75838;SHT30;64480;52.040;113.502;2023-04-15T07:27:14;10.55;16.64
75838;SHT30;64480;52.040;113.502;2023-04-15T07:30:18;10.55;16.69
75838;SHT30;64480;52.040;113.502;2023-04-15T07:33:22;10.63;16.88
75838;SHT30;64480;52.040;113.502;2023-04-15T07:36:26;10.78;17.52
75838;SHT30;64480;52.040;113.502;2023-04-15T07:39:31;10.73;17.11
75838;SHT30;64480;52.040;113.502;2023-04-15T07:42:34;10.73;17.57
75838;SHT30;64480;52.040;113.502;2023-04-15T07:45:41;10.73;17.77
75838;SHT30;64480;52.040;113.502;2023-04-15T07:48:44;10.71;17.77
75838;SHT30;64480;52.040;113.502;2023-04-15T07:51:48;10.73;17.50
75838;SHT30;64480;52.040;113.502;2023-04-15T07:54:52;10.75;16.53
75838;SHT30;64480;52.040;113.502;2023-04-15T07:57:57;10.67;16.63
75838;SHT30;64480;52.040;113.502;2023-04-15T08:01:01;10.67;17.15
75838;SHT30;64480;52.040;113.502;2023-04-15T08:04:07;10.74;17.20
75838;SHT30;64480;52.040;113.502;2023-04-15T08:07:11;10.83;17.92
75838;SHT30;64480;52.040;113.502;2023-04-15T08:10:14;10.84;18.18
75838;SHT30;64480;52.040;113.502;2023-04-15T08:13:18;10.90;17.45
75838;SHT30;64480;52.040;113.502;2023-04-15T08:16:23;11.00;17.41
75838;SHT30;64480;52.040;113.502;2023-04-15T08:19:27;10.95;16.50
75838;SHT30;64480;52.040;113.502;2023-04-15T08:22:32;11.04;16.85
75838;SHT30;64480;52.040;113.502;2023-04-15T08:25:36;11.10;17.77
75838;SHT30;64480;52.040;113.502;2023-04-15T08:28:40;11.00;17.09
75838;SHT30;64480;52.040;113.502;2023-04-15T08:31:46;10.98;17.92
75838;SHT30;64480;52.040;113.502;2023-04-15T08:34:50;11.02;18.59
75838;SHT30;64480;52.040;113.502;2023-04-15T08:37:54;11.02;17.58
75838;SHT30;64480;52.040;113.502;2023-04-15T08:40:59;10.95;17.34
75838;SHT30;64480;52.040;113.502;2023-04-15T08:44:05;10.93;17.73
75838;SHT30;64480;52.040;113.502;2023-04-15T08:47:11;10.87;17.35
75838;SHT30;64480;52.040;113.502;2023-04-15T08:50:19;10.83;17.11
75838;SHT30;64480;52.040;113.502;2023-04-15T08:53:24;10.90;17.67
75838;SHT30;64480;52.040;113.502;2023-04-15T08:56:30;10.91;18.03
75838;SHT30;64480;52.040;113.502;2023-04-15T08:59:50;10.93;18.44
75838;SHT30;64480;52.040;113.502;2023-04-15T09:02:55;10.88;17.29
75838;SHT30;64480;52.040;113.502;2023-04-15T09:05:59;10.83;17.54
75838;SHT30;64480;52.040;113.502;2023-04-15T09:09:04;10.85;17.68
75838;SHT30;64480;52.040;113.502;2023-04-15T09:12:27;10.80;17.35
75838;SHT30;64480;52.040;113.502;2023-04-15T09:15:48;10.81;16.70
75838;SHT30;64480;52.040;113.502;2023-04-15T09:18:52;10.78;17.31
75838;SHT30;64480;52.040;113.502;2023-04-15T09:21:58;10.77;15.71
75838;SHT30;64480;52.040;113.502;2023-04-15T09:25:01;10.70;16.98
75838;SHT30;64480;52.040;113.502;2023-04-15T09:28:07;10.68;17.03
75838;SHT30;64480;52.040;113.502;2023-04-15T09:31:11;10.68;18.13
75838;SHT30;64480;52.040;113.502;2023-04-15T09:34:15;10.63;18.05
75838;SHT30;64480;52.040;113.502;2023-04-15T09:37:34;10.57;18.63
75838;SHT30;64480;52.040;113.502;2023-04-15T09:40:39;10.43;19.52
75838;SHT30;64480;52.040;113.502;2023-04-15T09:43:46;10.38;18.76
75838;SHT30;64480;52.040;113.502;2023-04-15T09:46:50;10.40;18.92
75838;SHT30;64480;52.040;113.502;2023-04-15T09:49:55;10.40;18.56
75838;SHT30;64480;52.040;113.502;2023-04-15T09:53:02;10.47;19.15
75838;SHT30;64480;52.040;113.502;2023-04-15T09:56:07;10.52;18.13
75838;SHT30;64480;52.040;113.502;2023-04-15T09:59:12;10.59;18.90
75838;SHT30;64480;52.040;113.502;2023-04-15T10:02:18;10.63;18.68
75838;SHT30;64480;52.040;113.502;2023-04-15T10:05:23;10.61;17.58
75838;SHT30;64480;52.040;113.502;2023-04-15T10:08:29;10.60;18.79
75838;SHT30;64480;52.040;113.502;2023-04-15T10:11:34;10.55;18.44
75838;SHT30;64480;52.040;113.502;2023-04-15T10:14:38;10.46;18.42
75838;SHT30;64480;52.040;113.502;2023-04-15T10:17:43;10.35;18.87
75838;SHT30;64480;52.040;113.502;2023-04-15T10:20:47;10.18;18.84
75838;SHT30;64480;52.040;113.502;2023-04-15T10:23:51;10.04;18.91
75838;SHT30;64480;52.040;113.502;2023-04-15T10:26:56;9.93;20.45
75838;SHT30;64480;52.040;113.502;2023-04-15T10:30:00;9.84;18.88
75838;SHT30;64480;52.040;113.502;2023-04-15T10:33:08;9.70;19.35
75838;SHT30;64480;52.040;113.502;2023-04-15T10:36:12;9.56;19.79
75838;SHT30;64480;52.040;113.502;2023-04-15T10:42:36;9.26;21.58
75838;SHT30;64480;52.040;113.502;2023-04-15T10:45:44;9.15;21.46
75838;SHT30;64480;52.040;113.502;2023-04-15T10:48:52;9.01;21.82
75838;SHT30;64480;52.040;113.502;2023-04-15T10:51:59;8.91;22.79
75838;SHT30;64480;52.040;113.502;2023-04-15T10:55:13;8.78;23.42
75838;SHT30;64480;52.040;113.502;2023-04-15T10:58:22;8.74;22.89
75838;SHT30;64480;52.040;113.502;2023-04-15T11:04:55;8.60;23.75
75838;SHT30;64480;52.040;113.502;2023-04-15T11:08:01;8.52;23.18
75838;SHT30;64480;52.040;113.502;2023-04-15T11:11:08;8.42;24.38
75838;SHT30;64480;52.040;113.502;2023-04-15T11:14:15;8.30;24.17
75838;SHT30;64480;52.040;113.502;2023-04-15T11:17:28;8.24;23.50
75838;SHT30;64480;52.040;113.502;2023-04-15T11:20:32;8.19;23.99
75838;SHT30;64480;52.040;113.502;2023-04-15T11:23:51;8.11;23.62
75838;SHT30;64480;52.040;113.502;2023-04-15T11:27:05;8.06;23.84
75838;SHT30;64480;52.040;113.502;2023-04-15T11:30:19;8.11;24.10
75838;SHT30;64480;52.040;113.502;2023-04-15T11:33:25;8.06;24.03
75838;SHT30;64480;52.040;113.502;2023-04-15T11:36:30;7.99;24.14
75838;SHT30;64480;52.040;113.502;2023-04-15T11:39:36;7.91;24.56
75838;SHT30;64480;52.040;113.502;2023-04-15T11:42:39;7.83;24.76
75838;SHT30;64480;52.040;113.502;2023-04-15T11:45:55;7.77;24.81
75838;SHT30;64480;52.040;113.502;2023-04-15T11:48:59;7.69;24.70
75838;SHT30;64480;52.040;113.502;2023-04-15T11:52:11;7.60;25.24
75838;SHT30;64480;52.040;113.502;2023-04-15T11:55:15;7.49;26.11
75838;SHT30;64480;52.040;113.502;2023-04-15T11:58:35;7.40;25.76
75838;SHT30;64480;52.040;113.502;2023-04-15T12:01:41;7.35;26.19
75838;SHT30;64480;52.040;113.502;2023-04-15T12:04:45;7.28;26.95
75838;SHT30;64480;52.040;113.502;2023-04-15T12:07:59;7.26;27.19
75838;SHT30;64480;52.040;113.502;2023-04-15T12:11:02;7.22;27.45
75838;SHT30;64480;52.040;113.502;2023-04-15T12:17:23;7.15;26.63
75838;SHT30;64480;52.040;113.502;2023-04-15T12:20:29;7.16;26.39
75838;SHT30;64480;52.040;113.502;2023-04-15T12:23:36;7.18;26.82
75838;SHT30;64480;52.040;113.502;2023-04-15T12:26:48;7.18;27.28
75838;SHT30;64480;52.040;113.502;2023-04-15T12:30:05;7.14;27.18
75838;SHT30;64480;52.040;113.502;2023-04-15T12:33:09;7.08;27.73
75838;SHT30;64480;52.040;113.502;2023-04-15T12:36:14;7.09;26.75
75838;SHT30;64480;52.040;113.502;2023-04-15T12:39:20;7.09;27.66
75838;SHT30;64480;52.040;113.502;2023-04-15T12:42:24;7.08;27.87
75838;SHT30;64480;52.040;113.502;2023-04-15T12:45:27;7.02;26.89
75838;SHT30;64480;52.040;113.502;2023-04-15T12:48:31;6.97;28.36
75838;SHT30;64480;52.040;113.502;2023-04-15T12:51:35;6.97;27.07
75838;SHT30;64480;52.040;113.502;2023-04-15T12:54:38;6.95;27.33
75838;SHT30;64480;52.040;113.502;2023-04-15T12:57:42;6.91;28.28
75838;SHT30;64480;52.040;113.502;2023-04-15T13:00:45;6.85;27.93
75838;SHT30;64480;52.040;113.502;2023-04-15T13:03:49;6.91;27.91
75838;SHT30;64480;52.040;113.502;2023-04-15T13:06:53;6.91;27.91
75838;SHT30;64480;52.040;113.502;2023-04-15T13:09:56;6.90;28.33
75838;SHT30;64480;52.040;113.502;2023-04-15T13:12:59;6.91;27.76
75838;SHT30;64480;52.040;113.502;2023-04-15T13:16:03;6.95;27.68
75838;SHT30;64480;52.040;113.502;2023-04-15T13:19:08;7.01;27.25
75838;SHT30;64480;52.040;113.502;2023-04-15T13:22:35;7.02;27.09
75838;SHT30;64480;52.040;113.502;2023-04-15T13:25:43;7.07;27.35
75838;SHT30;64480;52.040;113.502;2023-04-15T13:28:58;7.04;27.15
75838;SHT30;64480;52.040;113.502;2023-04-15T13:32:16;7.05;27.16
75838;SHT30;64480;52.040;113.502;2023-04-15T13:35:20;7.02;26.93
75838;SHT30;64480;52.040;113.502;2023-04-15T13:38:26;7.07;26.95
75838;SHT30;64480;52.040;113.502;2023-04-15T13:41:31;7.01;27.36
75838;SHT30;64480;52.040;113.502;2023-04-15T13:44:34;7.00;27.36
75838;SHT30;64480;52.040;113.502;2023-04-15T13:47:38;7.00;27.25
75838;SHT30;64480;52.040;113.502;2023-04-15T13:50:41;7.00;27.16
75838;SHT30;64480;52.040;113.502;2023-04-15T13:53:47;6.98;27.03
75838;SHT30;64480;52.040;113.502;2023-04-15T13:56:50;6.95;27.01
75838;SHT30;64480;52.040;113.502;2023-04-15T13:59:54;7.00;27.14
75838;SHT30;64480;52.040;113.502;2023-04-15T14:02:57;6.92;27.13
75838;SHT30;64480;52.040;113.502;2023-04-15T14:06:14;6.87;27.07
75838;SHT30;64480;52.040;113.502;2023-04-15T14:09:38;6.92;27.13
75838;SHT30;64480;52.040;113.502;2023-04-15T14:12:44;6.91;26.62
75838;SHT30;64480;52.040;113.502;2023-04-15T14:15:47;6.88;26.91
75838;SHT30;64480;52.040;113.502;2023-04-15T14:18:51;6.92;26.77
75838;SHT30;64480;52.040;113.502;2023-04-15T14:21:54;6.92;27.09
75838;SHT30;64480;52.040;113.502;2023-04-15T14:24:58;6.95;26.75
75838;SHT30;64480;52.040;113.502;2023-04-15T14:28:02;6.90;26.18
75838;SHT30;64480;52.040;113.502;2023-04-15T14:31:06;6.95;26.30
75838;SHT30;64480;52.040;113.502;2023-04-15T14:34:10;6.95;25.62
75838;SHT30;64480;52.040;113.502;2023-04-15T14:37:13;6.91;26.17
75838;SHT30;64480;52.040;113.502;2023-04-15T14:40:17;6.92;26.02
75838;SHT30;64480;52.040;113.502;2023-04-15T14:43:20;6.88;26.19
75838;SHT30;64480;52.040;113.502;2023-04-15T14:46:24;6.87;26.05
75838;SHT30;64480;52.040;113.502;2023-04-15T14:49:28;6.92;25.54
75838;SHT30;64480;52.040;113.502;2023-04-15T14:52:32;6.90;25.46
75838;SHT30;64480;52.040;113.502;2023-04-15T14:55:40;6.85;25.68
75838;SHT30;64480;52.040;113.502;2023-04-15T14:58:44;6.83;25.51
75838;SHT30;64480;52.040;113.502;2023-04-15T15:01:47;6.84;25.32
75838;SHT30;64480;52.040;113.502;2023-04-15T15:04:51;6.85;25.09
75838;SHT30;64480;52.040;113.502;2023-04-15T15:07:54;6.84;24.90
75838;SHT30;64480;52.040;113.502;2023-04-15T15:10:58;6.85;25.11
75838;SHT30;64480;52.040;113.502;2023-04-15T15:14:01;6.79;25.26
75838;SHT30;64480;52.040;113.502;2023-04-15T15:17:05;6.81;25.21
75838;SHT30;64480;52.040;113.502;2023-04-15T15:20:08;6.79;25.36
75838;SHT30;64480;52.040;113.502;2023-04-15T15:23:14;6.74;25.27
75838;SHT30;64480;52.040;113.502;2023-04-15T15:26:18;6.79;25.47
75838;SHT30;64480;52.040;113.502;2023-04-15T15:29:21;6.74;26.19
75838;SHT30;64480;52.040;113.502;2023-04-15T15:32:25;6.74;26.35
75838;SHT30;64480;52.040;113.502;2023-04-15T15:35:28;6.70;26.06
75838;SHT30;64480;52.040;113.502;2023-04-15T15:38:32;6.72;25.64
75838;SHT30;64480;52.040;113.502;2023-04-15T15:41:35;6.70;25.92
75838;SHT30;64480;52.040;113.502;2023-04-15T15:44:39;6.70;25.57
75838;SHT30;64480;52.040;113.502;2023-04-15T15:47:43;6.63;26.33
75838;SHT30;64480;52.040;113.502;2023-04-15T15:50:46;6.62;25.67
75838;SHT30;64480;52.040;113.502;2023-04-15T15:53:50;6.62;26.01
75838;SHT30;64480;52.040;113.502;2023-04-15T15:56:53;6.60;26.03
75838;SHT30;64480;52.040;113.502;2023-04-15T15:59:57;6.52;26.22
75838;SHT30;64480;52.040;113.502;2023-04-15T16:03:14;6.49;25.80
75838;SHT30;64480;52.040;113.502;2023-04-15T16:06:18;6.43;26.26
75838;SHT30;64480;52.040;113.502;2023-04-15T16:09:21;6.42;26.68
75838;SHT30;64480;52.040;113.502;2023-04-15T16:12:25;6.38;27.14
75838;SHT30;64480;52.040;113.502;2023-04-15T16:15:29;6.39;26.62
75838;SHT30;64480;52.040;113.502;2023-04-15T16:18:32;6.33;26.40
75838;SHT30;64480;52.040;113.502;2023-04-15T16:21:36;6.33;26.41
75838;SHT30;64480;52.040;113.502;2023-04-15T16:24:40;6.30;26.82
75838;SHT30;64480;52.040;113.502;2023-04-15T16:27:43;6.30;27.10
75838;SHT30;64480;52.040;113.502;2023-04-15T16:31:04;6.30;27.49
75838;SHT30;64480;52.040;113.502;2023-04-15T16:34:08;6.29;26.96
75838;SHT30;64480;52.040;113.502;2023-04-15T16:37:11;6.25;27.71
75838;SHT30;64480;52.040;113.502;2023-04-15T16:40:15;6.25;27.68
75838;SHT30;64480;52.040;113.502;2023-04-15T16:43:18;6.22;27.04
75838;SHT30;64480;52.040;113.502;2023-04-15T16:46:22;6.24;27.09
75838;SHT30;64480;52.040;113.502;2023-04-15T16:49:25;6.22;28.08
75838;SHT30;64480;52.040;113.502;2023-04-15T16:52:30;6.22;27.55
75838;SHT30;64480;52.040;113.502;2023-04-15T16:55:33;6.22;27.11
75838;SHT30;64480;52.040;113.502;2023-04-15T16:58:37;6.18;27.83
75838;SHT30;64480;52.040;113.502;2023-04-15T17:01:40;6.15;27.60
75838;SHT30;64480;52.040;113.502;2023-04-15T17:04:44;6.15;27.58
75838;SHT30;64480;52.040;113.502;2023-04-15T17:07:47;6.15;27.56
75838;SHT30;64480;52.040;113.502;2023-04-15T17:10:51;6.11;27.89
75838;SHT30;64480;52.040;113.502;2023-04-15T17:13:54;6.12;27.90
75838;SHT30;64480;52.040;113.502;2023-04-15T17:16:58;6.10;27.90
75838;SHT30;64480;52.040;113.502;2023-04-15T17:20:02;6.10;28.44
75838;SHT30;64480;52.040;113.502;2023-04-15T17:23:06;6.14;27.93
75838;SHT30;64480;52.040;113.502;2023-04-15T17:26:09;6.07;27.99
75838;SHT30;64480;52.040;113.502;2023-04-15T17:29:13;6.10;28.07
75838;SHT30;64480;52.040;113.502;2023-04-15T17:32:16;6.05;28.10
75838;SHT30;64480;52.040;113.502;2023-04-15T17:35:20;6.05;28.72
75838;SHT30;64480;52.040;113.502;2023-04-15T17:38:25;6.01;28.72
75838;SHT30;64480;52.040;113.502;2023-04-15T17:41:28;5.97;28.35
75838;SHT30;64480;52.040;113.502;2023-04-15T17:44:32;5.97;28.66
75838;SHT30;64480;52.040;113.502;2023-04-15T17:47:35;5.94;28.40
75838;SHT30;64480;52.040;113.502;2023-04-15T17:50:39;5.95;28.18
75838;SHT30;64480;52.040;113.502;2023-04-15T17:53:42;5.98;28.27
75838;SHT30;64480;52.040;113.502;2023-04-15T17:56:46;5.98;27.69
75838;SHT30;64480;52.040;113.502;2023-04-15T17:59:51;5.98;28.13
75838;SHT30;64480;52.040;113.502;2023-04-15T18:02:54;5.94;28.51
75838;SHT30;64480;52.040;113.502;2023-04-15T18:05:58;5.90;28.64
75838;SHT30;64480;52.040;113.502;2023-04-15T18:09:03;5.86;28.06
75838;SHT30;64480;52.040;113.502;2023-04-15T18:12:07;5.81;29.06
75838;SHT30;64480;52.040;113.502;2023-04-15T18:15:11;5.77;29.24
75838;SHT30;64480;52.040;113.502;2023-04-15T18:18:16;5.74;29.04
75838;SHT30;64480;52.040;113.502;2023-04-15T18:21:20;5.73;29.17
75838;SHT30;64480;52.040;113.502;2023-04-15T18:24:23;5.73;29.22
75838;SHT30;64480;52.040;113.502;2023-04-15T18:27:27;5.77;29.25
75838;SHT30;64480;52.040;113.502;2023-04-15T18:30:30;5.74;29.21
75838;SHT30;64480;52.040;113.502;2023-04-15T18:33:34;5.77;28.94
75838;SHT30;64480;52.040;113.502;2023-04-15T18:36:38;5.74;29.22
75838;SHT30;64480;52.040;113.502;2023-04-15T18:39:42;5.74;29.14
75838;SHT30;64480;52.040;113.502;2023-04-15T18:42:46;5.74;29.42
75838;SHT30;64480;52.040;113.502;2023-04-15T18:45:50;5.70;29.45
75838;SHT30;64480;52.040;113.502;2023-04-15T18:48:54;5.66;29.35
75838;SHT30;64480;52.040;113.502;2023-04-15T18:51:58;5.66;28.73
75838;SHT30;64480;52.040;113.502;2023-04-15T18:55:02;5.62;29.30
75838;SHT30;64480;52.040;113.502;2023-04-15T18:58:06;5.60;29.22
75838;SHT30;64480;52.040;113.502;2023-04-15T19:01:10;5.59;29.59
75838;SHT30;64480;52.040;113.502;2023-04-15T19:04:13;5.57;29.39
75838;SHT30;64480;52.040;113.502;2023-04-15T19:07:17;5.60;29.11
75838;SHT30;64480;52.040;113.502;2023-04-15T19:10:20;5.59;29.98
75838;SHT30;64480;52.040;113.502;2023-04-15T19:13:25;5.57;30.46
75838;SHT30;64480;52.040;113.502;2023-04-15T19:16:28;5.63;29.39
75838;SHT30;64480;52.040;113.502;2023-04-15T19:19:32;5.63;30.11